createdAt,value
2019-05-14T00:01:12.631Z,78.17
2019-05-14T00:03:44.164Z,78.00
2019-05-14T00:06:15.508Z,77.66
2019-05-14T00:08:46.964Z,77.97
2019-05-14T00:11:19.369Z,78.62
2019-05-14T00:13:52.005Z,79.19
2019-05-14T00:16:24.389Z,78.84
2019-05-14T00:18:55.961Z,78.71
2019-05-14T00:21:27.345Z,77.83
2019-05-14T00:23:58.741Z,78.42
2019-05-14T00:26:31.819Z,77.88
2019-05-14T00:29:03.290Z,77.45
2019-05-14T00:31:34.701Z,77.24
2019-05-14T00:34:07.305Z,77.07
2019-05-14T00:36:38.740Z,77.11
2019-05-14T00:39:11.218Z,77.33
2019-05-14T00:41:42.833Z,77.14
2019-05-14T00:44:14.205Z,77.73
2019-05-14T00:46:45.719Z,77.63
2019-05-14T00:49:17.274Z,78.29
2019-05-14T00:51:48.625Z,78.66
2019-05-14T00:54:21.540Z,78.59
2019-05-14T00:56:53.075Z,78.33
2019-05-14T00:59:24.485Z,79.25
2019-05-14T01:01:56.045Z,79.68
2019-05-14T01:04:27.393Z,79.14
2019-05-14T01:06:58.754Z,79.32
2019-05-14T01:09:31.440Z,79.07
2019-05-14T01:12:02.877Z,79.21
2019-05-14T01:14:34.296Z,78.98
2019-05-14T01:17:05.808Z,79.03
2019-05-14T01:19:37.231Z,79.00
2019-05-14T01:22:08.568Z,79.00
2019-05-14T01:24:41.626Z,78.77
2019-05-14T01:27:13.224Z,79.51
2019-05-14T01:29:44.615Z,79.16
2019-05-14T01:32:16.212Z,79.40
2019-05-14T01:34:47.736Z,79.54
2019-05-14T01:37:21.690Z,79.93
2019-05-14T01:39:53.492Z,80.09
2019-05-14T01:42:24.820Z,79.89
2019-05-14T01:44:56.500Z,80.75
2019-05-14T01:47:31.749Z,80.77
2019-05-14T01:50:03.044Z,81.18
2019-05-14T01:52:35.730Z,81.41
2019-05-14T01:55:07.778Z,81.75
2019-05-14T01:57:39.302Z,82.18
2019-05-14T02:00:11.841Z,82.83
2019-05-14T02:02:43.190Z,83.01
2019-05-14T02:05:14.585Z,84.08
2019-05-14T02:07:45.961Z,84.38
2019-05-14T02:10:17.762Z,84.47
2019-05-14T02:12:51.361Z,84.68
2019-05-14T02:15:35.285Z,84.77
2019-05-14T02:17:55.542Z,84.85
2019-05-14T02:20:28.043Z,84.76
2019-05-14T02:23:01.828Z,85.10
2019-05-14T02:25:33.279Z,85.17
2019-05-14T02:28:05.894Z,85.11
2019-05-14T02:30:48.061Z,85.94
2019-05-14T02:33:10.315Z,85.49
2019-05-14T02:35:41.750Z,85.14
2019-05-14T02:38:13.144Z,84.82
2019-05-14T02:40:44.566Z,84.43
2019-05-14T02:43:19.622Z,84.20
2019-05-14T02:46:02.175Z,83.84
2019-05-14T02:48:22.834Z,83.59
2019-05-14T02:50:54.189Z,82.60
2019-05-14T02:53:25.740Z,82.70
2019-05-14T02:55:59.238Z,81.08
2019-05-14T02:58:31.353Z,80.59
2019-05-14T03:01:02.786Z,79.71
2019-05-14T03:03:34.263Z,80.50
2019-05-14T03:06:05.679Z,79.76
2019-05-14T03:08:38.990Z,76.88
2019-05-14T03:11:10.306Z,78.21
2019-05-14T03:13:41.641Z,77.95
2019-05-14T03:16:29.069Z,77.56
2019-05-14T03:18:46.186Z,75.96
2019-05-14T03:21:19.807Z,74.20
2019-05-14T03:23:52.864Z,76.43
2019-05-14T03:26:24.244Z,75.82
2019-05-14T03:28:55.847Z,75.33
2019-05-14T03:31:32.228Z,74.59
2019-05-14T03:34:02.797Z,72.75
2019-05-14T03:36:35.517Z,72.10
2019-05-14T03:39:10.573Z,71.63
2019-05-14T03:41:40.662Z,69.53
2019-05-14T03:44:12.150Z,68.20
2019-05-14T03:46:54.369Z,67.70
2019-05-14T03:49:19.861Z,66.85
2019-05-14T03:51:50.837Z,66.86
2019-05-14T03:54:22.217Z,67.09
2019-05-14T03:56:53.657Z,67.33
2019-05-14T03:59:25.337Z,68.65
2019-05-14T04:01:59.674Z,68.85
2019-05-14T04:04:32.016Z,68.08
2019-05-14T04:07:04.413Z,67.30
2019-05-14T04:09:35.963Z,66.74
2019-05-14T04:12:09.955Z,65.81
2019-05-14T04:14:45.692Z,64.66
2019-05-14T04:17:36.172Z,65.03
2019-05-14T04:19:59.947Z,65.62
2019-05-14T04:22:33.765Z,63.43
2019-05-14T04:25:10.974Z,62.87
2019-05-14T04:27:40.856Z,63.06
2019-05-14T04:30:12.584Z,63.01
2019-05-14T04:32:44.029Z,61.97
2019-05-14T04:35:19.923Z,62.56
2019-05-14T04:37:49.560Z,62.81
2019-05-14T04:40:21.467Z,62.98
2019-05-14T04:42:52.956Z,61.62
2019-05-14T04:45:29.393Z,60.59
2019-05-14T04:48:00.365Z,58.94
2019-05-14T04:50:31.995Z,57.36
2019-05-14T04:53:03.482Z,58.40
2019-05-14T04:55:39.945Z,57.71
2019-05-14T04:58:10.366Z,58.13
2019-05-14T05:00:49.970Z,57.52
2019-05-14T05:03:20.599Z,56.35
2019-05-14T05:05:52.008Z,55.64
2019-05-14T05:08:23.388Z,55.17
2019-05-14T05:10:54.816Z,56.97
2019-05-14T05:13:28.939Z,57.19
2019-05-14T05:16:00.325Z,57.68
2019-05-14T05:18:31.739Z,58.19
2019-05-14T05:21:03.113Z,57.30
2019-05-14T05:23:34.659Z,56.68
2019-05-14T05:26:06.068Z,56.40
2019-05-14T05:28:39.086Z,56.99
2019-05-14T05:31:10.822Z,55.80
2019-05-14T05:33:42.329Z,55.01
2019-05-14T05:36:13.831Z,53.52
2019-05-14T05:38:45.334Z,52.99
2019-05-14T05:41:18.904Z,50.57
2019-05-14T05:43:50.960Z,46.67
2019-05-14T05:46:22.273Z,49.17
2019-05-14T05:48:53.787Z,47.27
2019-05-14T05:51:28.677Z,44.72
2019-05-14T05:53:59.375Z,43.64
2019-05-14T05:56:30.785Z,44.25
2019-05-14T05:59:02.146Z,41.81
2019-05-14T06:01:42.948Z,43.10
2019-05-14T06:04:08.734Z,40.01
2019-05-14T06:06:40.098Z,41.45
2019-05-14T06:09:11.448Z,39.90
2019-05-14T06:11:42.846Z,41.28
2019-05-14T06:14:15.254Z,39.28
2019-05-14T06:16:48.679Z,37.49
2019-05-14T06:19:19.946Z,40.12
2019-05-14T06:22:04.070Z,35.17
2019-05-14T06:24:34.093Z,34.21
2019-05-14T06:27:05.439Z,35.12
2019-05-14T06:29:38.309Z,36.54
2019-05-14T06:32:10.005Z,36.92
2019-05-14T06:34:41.562Z,34.97
2019-05-14T06:37:13.125Z,35.37
2019-05-14T06:39:44.691Z,35.46
2019-05-14T06:42:16.311Z,34.21
2019-05-14T06:44:49.252Z,33.81
2019-05-14T06:47:20.896Z,33.73
2019-05-14T06:49:52.317Z,33.38
2019-05-14T06:52:24.526Z,35.76
2019-05-14T06:54:58.135Z,44.66
2019-05-14T06:57:29.060Z,47.49
2019-05-14T07:00:01.598Z,49.98
2019-05-14T07:02:33.100Z,50.67
2019-05-14T07:05:08.335Z,52.25
2019-05-14T07:07:40.727Z,52.55
2019-05-14T07:10:12.664Z,53.71
2019-05-14T07:12:44.156Z,54.06
2019-05-14T07:15:18.173Z,53.73
2019-05-14T07:17:49.040Z,54.25
2019-05-14T07:20:21.558Z,54.96
2019-05-14T07:22:53.021Z,54.07
2019-05-14T07:25:25.393Z,52.87
2019-05-14T07:27:58.301Z,53.29
2019-05-14T07:30:29.795Z,53.61
2019-05-14T07:33:02.733Z,53.96
2019-05-14T07:35:34.228Z,53.29
2019-05-14T07:38:05.658Z,51.90
2019-05-14T07:40:38.797Z,51.01
2019-05-14T07:43:10.235Z,49.46
2019-05-14T07:45:41.824Z,51.03
2019-05-14T07:48:13.241Z,50.53
2019-05-14T07:50:48.248Z,49.56
2019-05-14T07:53:18.041Z,49.53
2019-05-14T07:55:51.013Z,50.13
2019-05-14T07:58:22.394Z,50.46
2019-05-14T08:00:54.867Z,50.25
2019-05-14T08:03:28.381Z,50.88
2019-05-14T08:05:59.456Z,51.03
2019-05-14T08:08:30.916Z,51.44
2019-05-14T08:11:02.476Z,50.79
2019-05-14T08:13:33.909Z,50.67
2019-05-14T08:16:05.385Z,49.73
2019-05-14T08:18:39.304Z,49.52
2019-05-14T08:21:10.371Z,50.87
2019-05-14T08:23:41.692Z,50.70
2019-05-14T08:26:13.167Z,50.60
2019-05-14T08:28:44.543Z,49.46
2019-05-14T08:31:18.439Z,48.36
2019-05-14T08:33:49.344Z,47.21
2019-05-14T08:36:20.810Z,48.02
2019-05-14T08:38:52.180Z,48.01
2019-05-14T08:41:23.689Z,47.78
2019-05-14T08:43:55.641Z,48.00
2019-05-14T08:46:28.298Z,47.77
2019-05-14T08:49:00.041Z,47.72
2019-05-14T08:51:31.564Z,47.42
2019-05-14T08:54:02.953Z,48.70
2019-05-14T08:56:34.380Z,48.47
2019-05-14T08:59:05.785Z,48.74
2019-05-14T09:01:38.795Z,45.80
2019-05-14T09:04:10.628Z,45.90
2019-05-14T09:06:42.838Z,46.22
2019-05-14T09:09:14.411Z,46.92
2019-05-14T09:11:47.449Z,46.89
2019-05-14T09:14:19.022Z,47.37
2019-05-14T09:16:51.279Z,45.07
2019-05-14T09:19:22.747Z,47.35
2019-05-14T09:21:54.244Z,48.50
2019-05-14T09:24:25.667Z,48.77
2019-05-14T09:26:59.297Z,48.12
2019-05-14T09:29:31.207Z,47.41
2019-05-14T09:32:02.690Z,46.27
2019-05-14T09:34:34.207Z,46.62
2019-05-14T09:37:08.400Z,45.19
2019-05-14T09:39:38.838Z,44.89
2019-05-14T09:42:10.370Z,45.47
2019-05-14T09:44:41.866Z,44.82
2019-05-14T09:47:13.439Z,45.42
2019-05-14T09:49:44.875Z,46.25
2019-05-14T09:52:18.686Z,46.77
2019-05-14T09:54:50.898Z,46.10
2019-05-14T09:57:22.406Z,45.39
2019-05-14T09:59:53.828Z,45.63
2019-05-14T10:02:25.306Z,44.95
2019-05-14T10:04:59.477Z,45.12
2019-05-14T10:07:29.947Z,44.64
2019-05-14T10:10:01.415Z,45.31
2019-05-14T10:12:39.494Z,45.19
2019-05-14T10:15:08.812Z,44.83
2019-05-14T10:17:40.497Z,43.06
2019-05-14T10:20:12.258Z,43.48
2019-05-14T10:22:43.757Z,43.92
2019-05-14T10:25:15.312Z,44.59
2019-05-14T10:27:48.510Z,44.66
2019-05-14T10:30:20.272Z,44.39
2019-05-14T10:32:51.739Z,44.24
2019-05-14T10:35:23.284Z,44.92
2019-05-14T10:37:54.919Z,45.07
2019-05-14T10:40:29.077Z,44.44
2019-05-14T10:42:59.467Z,43.60
2019-05-14T10:45:30.954Z,43.98
2019-05-14T10:48:02.458Z,44.30
2019-05-14T10:50:40.606Z,44.16
2019-05-14T10:53:09.217Z,43.12
2019-05-14T10:55:40.773Z,44.14
2019-05-14T10:58:12.264Z,43.37
2019-05-14T11:00:43.777Z,43.05
2019-05-14T11:03:15.185Z,43.86
2019-05-14T11:05:48.145Z,43.76
2019-05-14T11:08:19.843Z,42.62
2019-05-14T11:10:51.192Z,43.44
2019-05-14T11:13:22.632Z,43.26
2019-05-14T11:15:54.015Z,44.46
2019-05-14T11:18:25.496Z,44.17
2019-05-14T11:21:18.210Z,43.12
2019-05-14T11:23:30.832Z,43.27
2019-05-14T11:26:02.346Z,44.10
2019-05-14T11:28:33.800Z,45.16
2019-05-14T11:31:05.234Z,45.37
2019-05-14T11:33:38.816Z,45.52
2019-05-14T11:36:09.993Z,45.49
2019-05-14T11:38:41.436Z,44.86
2019-05-14T11:41:14.218Z,43.66
2019-05-14T11:43:48.949Z,44.44
2019-05-14T11:46:33.434Z,43.97
2019-05-14T11:48:54.539Z,43.57
2019-05-14T11:51:56.201Z,43.97
2019-05-14T11:53:59.099Z,44.60
2019-05-14T11:56:30.496Z,44.51
2019-05-14T11:59:02.037Z,43.92
2019-05-14T12:01:33.591Z,44.12
2019-05-14T12:04:05.171Z,44.81
2019-05-14T12:06:39.150Z,45.09
2019-05-14T12:09:12.108Z,44.37
2019-05-14T12:11:43.837Z,45.31
2019-05-14T12:14:15.217Z,46.51
2019-05-14T12:16:49.191Z,43.61
2019-05-14T12:19:19.771Z,42.94
2019-05-14T12:22:06.192Z,44.13
2019-05-14T12:24:24.243Z,44.31
2019-05-14T12:26:58.607Z,44.79
2019-05-14T12:29:29.390Z,44.28
2019-05-14T12:32:00.821Z,44.75
2019-05-14T12:34:32.348Z,45.54
2019-05-14T12:37:03.804Z,45.33
2019-05-14T12:39:35.239Z,44.98
2019-05-14T12:42:10.015Z,44.88
2019-05-14T12:44:40.913Z,45.29
2019-05-14T12:47:12.589Z,45.74
2019-05-14T12:49:48.122Z,44.61
2019-05-14T12:52:25.467Z,44.56
2019-05-14T12:54:52.137Z,45.33
2019-05-14T12:57:23.486Z,44.65
2019-05-14T12:59:54.883Z,44.87
2019-05-14T13:02:26.225Z,45.33
2019-05-14T13:05:00.170Z,45.39
2019-05-14T13:07:30.718Z,45.58
2019-05-14T13:10:04.601Z,45.29
2019-05-14T13:12:38.782Z,45.72
2019-05-14T13:15:11.179Z,43.53
2019-05-14T13:17:42.530Z,43.68
2019-05-14T13:20:15.323Z,44.13
2019-05-14T13:22:49.863Z,43.30
2019-05-14T13:25:21.147Z,44.02
2019-05-14T13:27:52.579Z,44.08
2019-05-14T13:30:24.062Z,44.51
2019-05-14T13:32:55.516Z,43.76
2019-05-14T13:35:29.110Z,42.98
2019-05-14T13:37:59.967Z,43.14
2019-05-14T13:40:31.477Z,43.66
2019-05-14T13:43:02.886Z,43.56
2019-05-14T13:45:34.321Z,43.98
2019-05-14T13:48:08.485Z,43.35
2019-05-14T13:50:40.552Z,44.35
2019-05-14T13:53:12.976Z,44.16
2019-05-14T13:55:47.845Z,43.64
2019-05-14T13:58:20.920Z,43.65
2019-05-14T14:00:52.061Z,43.77
2019-05-14T14:03:23.881Z,43.82
2019-05-14T14:05:55.465Z,44.19
2019-05-14T14:08:29.211Z,43.03
2019-05-14T14:11:02.536Z,42.54
2019-05-14T14:13:33.098Z,43.05
2019-05-14T14:16:04.607Z,43.51
2019-05-14T14:18:35.978Z,43.76
2019-05-14T14:21:09.069Z,43.19
2019-05-14T14:23:40.518Z,43.69
2019-05-14T14:26:12.084Z,44.51
2019-05-14T14:28:43.533Z,45.01
2019-05-14T14:31:15.098Z,45.04
2019-05-14T14:33:48.656Z,43.73
2019-05-14T14:36:20.262Z,44.73
2019-05-14T14:38:51.785Z,45.09
2019-05-14T14:41:23.279Z,43.81
2019-05-14T14:43:55.365Z,43.45
2019-05-14T14:46:28.718Z,44.50
2019-05-14T14:49:02.657Z,44.29
2019-05-14T14:51:40.857Z,43.71
2019-05-14T14:54:14.477Z,44.68
2019-05-14T14:56:41.920Z,43.44
2019-05-14T14:59:13.394Z,44.50
2019-05-14T15:01:44.862Z,43.82
2019-05-14T15:04:19.292Z,44.47
2019-05-14T15:06:51.407Z,44.14
2019-05-14T15:09:23.029Z,43.14
2019-05-14T15:11:54.441Z,43.47
2019-05-14T15:14:29.499Z,43.24
2019-05-14T15:16:58.956Z,43.77
2019-05-14T15:19:30.286Z,44.38
2019-05-14T15:22:01.696Z,44.69
2019-05-14T15:24:33.137Z,43.89
2019-05-14T15:27:08.922Z,43.87
2019-05-14T15:29:38.721Z,43.37
2019-05-14T15:32:10.887Z,43.04
2019-05-14T15:34:42.336Z,40.47
2019-05-14T15:37:13.813Z,41.27
2019-05-14T15:39:45.303Z,41.69
2019-05-14T15:42:19.319Z,41.29
2019-05-14T15:44:55.697Z,39.94
2019-05-14T15:47:24.229Z,40.29
2019-05-14T15:49:55.618Z,40.70
2019-05-14T15:52:29.006Z,40.74
2019-05-14T15:55:02.986Z,41.16
2019-05-14T15:57:34.558Z,39.95
2019-05-14T16:00:08.635Z,40.73
2019-05-14T16:02:41.786Z,39.90
2019-05-14T16:05:13.378Z,40.29
2019-05-14T16:07:44.906Z,39.86
2019-05-14T16:10:16.316Z,40.27
2019-05-14T16:12:49.630Z,39.96
2019-05-14T16:15:21.153Z,41.08
2019-05-14T16:18:05.647Z,39.94
2019-05-14T16:20:25.998Z,40.80
2019-05-14T16:22:58.937Z,40.00
2019-05-14T16:25:30.580Z,40.00
2019-05-14T16:28:01.994Z,40.69
2019-05-14T16:30:33.416Z,40.70
2019-05-14T16:33:04.915Z,41.43
2019-05-14T16:35:36.378Z,41.17
2019-05-14T16:38:08.342Z,40.95
2019-05-14T16:40:40.664Z,42.03
2019-05-14T16:43:13.233Z,42.35
2019-05-14T16:45:45.106Z,42.89
2019-05-14T16:48:18.280Z,42.29
2019-05-14T16:50:50.527Z,42.64
2019-05-14T16:53:22.179Z,42.85
2019-05-14T16:55:54.587Z,43.18
2019-05-14T16:58:28.640Z,43.58
2019-05-14T17:00:59.186Z,44.33
2019-05-14T17:03:30.644Z,44.27
2019-05-14T17:06:01.987Z,45.38
2019-05-14T17:08:33.476Z,45.26
2019-05-14T17:11:04.882Z,43.49
2019-05-14T17:13:38.182Z,44.64
2019-05-14T17:16:09.495Z,44.88
2019-05-14T17:18:40.983Z,45.43
2019-05-14T17:21:12.445Z,46.20
2019-05-14T17:23:43.852Z,47.05
2019-05-14T17:26:15.355Z,47.30
2019-05-14T17:28:48.929Z,46.77
2019-05-14T17:31:20.017Z,48.00
2019-05-14T17:33:51.501Z,48.00
2019-05-14T17:36:22.975Z,48.61
2019-05-14T17:38:54.413Z,48.34
2019-05-14T17:41:25.804Z,48.52
2019-05-14T17:43:58.569Z,49.12
2019-05-14T17:46:30.109Z,49.13
2019-05-14T17:49:01.932Z,50.09
2019-05-14T17:51:33.426Z,51.27
2019-05-14T17:54:04.896Z,51.41
2019-05-14T17:56:36.390Z,53.11
2019-05-14T17:59:08.584Z,53.94
2019-05-14T18:01:40.141Z,53.93
2019-05-14T18:04:11.619Z,53.21
2019-05-14T18:06:43.057Z,53.51
2019-05-14T18:09:15.989Z,54.97
2019-05-14T18:11:49.060Z,55.26
2019-05-14T18:14:20.717Z,55.59
2019-05-14T18:16:52.239Z,55.31
2019-05-14T18:19:23.755Z,56.65
2019-05-14T18:21:55.183Z,54.84
2019-05-14T18:24:28.526Z,55.14
2019-05-14T18:26:59.879Z,55.45
2019-05-14T18:29:31.362Z,57.45
2019-05-14T18:32:02.779Z,59.82
2019-05-14T18:34:34.284Z,60.69
2019-05-14T18:37:05.730Z,61.19
2019-05-14T18:39:39.435Z,61.55
2019-05-14T18:42:10.515Z,61.58
2019-05-14T18:44:41.993Z,62.48
2019-05-14T18:47:16.687Z,62.84
2019-05-14T18:49:48.616Z,63.59
2019-05-14T18:52:19.920Z,63.77
2019-05-14T18:54:51.479Z,64.22
2019-05-14T18:57:22.982Z,64.41
2019-05-14T18:59:54.441Z,64.81
2019-05-14T19:02:29.111Z,64.29
2019-05-14T19:05:00.028Z,65.92
2019-05-14T19:07:31.582Z,65.79
2019-05-14T19:10:02.998Z,65.84
2019-05-14T19:12:34.622Z,65.75
2019-05-14T19:15:08.699Z,66.48
2019-05-14T19:17:44.592Z,66.38
2019-05-14T19:20:16.264Z,66.49
2019-05-14T19:22:49.059Z,66.54
2019-05-14T19:25:22.138Z,66.61
2019-05-14T19:27:53.599Z,67.05
2019-05-14T19:30:25.094Z,67.60
2019-05-14T19:32:56.735Z,67.91
2019-05-14T19:35:28.782Z,67.91
2019-05-14T19:38:00.348Z,68.14
2019-05-14T19:40:31.775Z,68.12
2019-05-14T19:43:03.101Z,67.76
2019-05-14T19:45:34.526Z,68.34
2019-05-14T19:48:08.024Z,68.33
2019-05-14T19:50:39.020Z,68.04
2019-05-14T19:53:10.451Z,68.21
2019-05-14T19:55:42.898Z,68.50
2019-05-14T19:58:14.358Z,68.90
2019-05-14T20:00:45.859Z,69.87
2019-05-14T20:03:18.742Z,69.78
2019-05-14T20:05:50.512Z,69.78
2019-05-14T20:08:21.952Z,70.10
2019-05-14T20:10:53.429Z,70.05
2019-05-14T20:13:24.900Z,70.08
2019-05-14T20:15:56.298Z,69.54
2019-05-14T20:18:29.003Z,69.09
2019-05-14T20:21:00.683Z,67.68
2019-05-14T20:23:32.075Z,68.02
2019-05-14T20:26:03.571Z,67.50
2019-05-14T20:28:35.109Z,68.44
2019-05-14T20:31:09.253Z,68.77
2019-05-14T20:33:39.611Z,68.76
2019-05-14T20:36:11.093Z,69.79
2019-05-14T20:38:42.493Z,69.62
2019-05-14T20:41:13.910Z,70.09
2019-05-14T20:43:45.392Z,69.77
2019-05-14T20:46:18.537Z,69.89
2019-05-14T20:48:50.163Z,70.52
2019-05-14T20:51:21.647Z,70.69
2019-05-14T20:53:53.056Z,70.90
2019-05-14T20:56:24.542Z,71.13
2019-05-14T20:58:55.916Z,71.55
2019-05-14T21:01:29.140Z,71.63
2019-05-14T21:04:00.408Z,71.68
2019-05-14T21:06:31.830Z,70.33
2019-05-14T21:09:03.218Z,70.22
2019-05-14T21:11:34.776Z,69.96
2019-05-14T21:14:08.777Z,69.31
2019-05-14T21:16:39.543Z,69.26
2019-05-14T21:19:10.917Z,69.92
2019-05-14T21:21:42.427Z,69.97
2019-05-14T21:24:13.850Z,70.91
2019-05-14T21:26:45.675Z,71.07
2019-05-14T21:29:17.121Z,71.07
2019-05-14T21:31:48.548Z,70.94
2019-05-14T21:34:19.926Z,70.87
2019-05-14T21:36:51.215Z,71.08
2019-05-14T21:39:22.616Z,71.03
2019-05-14T21:41:54.025Z,71.21
2019-05-14T21:44:25.851Z,70.59
2019-05-14T21:46:58.932Z,71.51
2019-05-14T21:49:30.531Z,71.70
2019-05-14T21:52:02.037Z,72.05
2019-05-14T21:54:34.552Z,72.14
2019-05-14T21:57:11.289Z,72.05
2019-05-14T21:59:39.152Z,72.63
2019-05-14T22:02:21.525Z,72.84
2019-05-14T22:04:43.756Z,72.50
2019-05-14T22:07:15.192Z,72.48
2019-05-14T22:09:48.646Z,72.97
2019-05-14T22:12:20.864Z,73.17
2019-05-14T22:14:52.302Z,73.21
2019-05-14T22:17:23.796Z,74.06
2019-05-14T22:19:55.130Z,74.05
2019-05-14T22:22:27.781Z,74.30
2019-05-14T22:25:09.081Z,73.82
2019-05-14T22:27:43.510Z,72.43
2019-05-14T22:30:15.128Z,73.92
2019-05-14T22:32:46.516Z,74.13
2019-05-14T22:35:18.702Z,74.53
2019-05-14T22:37:50.245Z,74.22
2019-05-14T22:40:21.676Z,73.52
2019-05-14T22:42:53.024Z,74.02
2019-05-14T22:45:24.417Z,74.61
2019-05-14T22:47:58.643Z,74.14
2019-05-14T22:50:29.541Z,74.69
2019-05-14T22:53:01.048Z,74.77
2019-05-14T22:55:33.579Z,74.49
2019-05-14T22:58:04.994Z,74.84
2019-05-14T23:00:44.976Z,74.46
2019-05-14T23:03:09.841Z,74.79
2019-05-14T23:05:41.206Z,74.79
2019-05-14T23:08:12.660Z,74.58
2019-05-14T23:10:44.151Z,74.83
2019-05-14T23:13:15.537Z,74.11
2019-05-14T23:15:48.089Z,73.16
2019-05-14T23:18:19.565Z,72.21
2019-05-14T23:20:52.343Z,72.08
2019-05-14T23:23:23.755Z,73.55
2019-05-14T23:25:55.138Z,72.02
2019-05-14T23:28:41.051Z,71.97
2019-05-14T23:30:59.651Z,73.41
2019-05-14T23:33:31.124Z,73.70
2019-05-14T23:36:02.473Z,74.01
2019-05-14T23:38:33.925Z,74.23
2019-05-14T23:41:05.372Z,74.46
2019-05-14T23:43:39.101Z,74.58
2019-05-14T23:46:09.971Z,74.37
2019-05-14T23:48:41.403Z,74.68
2019-05-14T23:51:12.811Z,74.33
2019-05-14T23:53:44.189Z,74.37
2019-05-14T23:56:15.705Z,73.57
2019-05-14T23:58:54.695Z,72.18
